Time;durP1;ratioP1;P1;durP2;ratioP2;P2;SDS_P1;SDS_P2;PMS_P1;PMS_P2;Temp;Humidity;BMP_temperature;BMP_pressure;BME280_temperature;BME280_humidity;BME280_pressure;Samples;Min_cycle;Max_cycle;Signal;HPM_P1;HPM_P2
2022/12/28 00:01:32;;;;;;;5.28;4.88;;;-0.80;99.90;;;;;;4879432;29;20048;-91
2022/12/28 00:04:03;;;;;;;5.50;4.97;;;-0.70;99.90;;;;;;4878666;29;20060;-91
2022/12/28 00:06:33;;;;;;;5.57;5.07;;;-0.70;99.90;;;;;;4899737;29;20056;-93
2022/12/28 00:09:01;;;;;;;11.38;5.80;;;-0.70;99.90;;;;;;4889521;29;20055;-92
2022/12/28 00:11:30;;;;;;;4.50;4.13;;;-0.70;99.90;;;;;;4898882;29;20056;-92
2022/12/28 00:14:00;;;;;;;7.05;6.45;;;-0.80;99.90;;;;;;4914423;29;20056;-91
2022/12/28 00:16:34;;;;;;;6.40;5.60;;;-0.80;99.90;;;;;;4900891;29;20045;-87
2022/12/28 00:19:05;;;;;;;7.95;5.32;;;-0.70;99.90;;;;;;4880187;29;20770;-89
2022/12/28 00:21:33;;;;;;;;;;;-0.70;99.90;;;;;;4895560;29;20174;-89
2022/12/28 00:24:04;;;;;;;5.80;4.63;;;-0.80;99.90;;;;;;4895888;29;19923;-92
2022/12/28 00:26:33;;;;;;;5.38;4.88;;;-0.90;99.90;;;;;;4896203;29;20057;-87
2022/12/28 00:29:02;;;;;;;6.63;5.93;;;-1.00;99.90;;;;;;4878606;29;20056;-88
2022/12/28 00:31:33;;;;;;;5.80;5.20;;;-1.00;99.90;;;;;;4880789;29;20056;-90
2022/12/28 00:34:02;;;;;;;4.95;4.55;;;-0.90;99.90;;;;;;4876346;29;20053;-89
2022/12/28 00:36:31;;;;;;;5.47;5.07;;;-0.80;99.90;;;;;;4889380;29;20067;-90
2022/12/28 00:39:19;;;;;;;10.10;4.55;;;-0.90;99.90;;;;;;4889881;29;20065;-86
2022/12/28 00:41:47;;;;;;;11.25;6.97;;;-1.30;99.90;;;;;;4895956;29;20662;-89
2022/12/28 00:44:14;;;;;;;10.90;6.47;;;-1.40;99.90;;;;;;4891271;29;20049;-87
2022/12/28 00:46:42;;;;;;;12.07;4.97;;;-1.40;99.90;;;;;;4879511;29;20749;-88
2022/12/28 00:49:11;;;;;;;7.28;4.38;;;-1.40;99.90;;;;;;4878491;29;20423;-77
2022/12/28 00:51:38;;;;;;;4.25;3.75;;;-1.20;99.90;;;;;;4895270;29;20040;-85
2022/12/28 00:54:06;;;;;;;5.75;5.25;;;-1.20;99.90;;;;;;4892947;29;20516;-85
2022/12/28 00:56:34;;;;;;;4.55;3.95;;;-1.20;99.90;;;;;;4896061;29;20044;-90
2022/12/28 00:59:02;;;;;;;5.50;5.00;;;-1.10;99.90;;;;;;4909844;29;20428;-87
2022/12/28 01:01:29;;;;;;;5.15;4.65;;;-1.00;99.90;;;;;;4874756;29;20063;-89
2022/12/28 01:03:58;;;;;;;4.85;4.45;;;-1.00;99.90;;;;;;4883182;29;20053;-90
2022/12/28 01:06:29;;;;;;;5.82;5.18;;;-1.00;99.90;;;;;;4890391;29;20097;-87
2022/12/28 01:08:57;;;;;;;5.38;4.55;;;-1.10;99.90;;;;;;4891315;29;20491;-86
2022/12/28 01:11:29;;;;;;;3.88;3.58;;;-1.10;99.90;;;;;;4898392;29;20451;-88
2022/12/28 01:13:59;;;;;;;4.32;3.92;;;-1.00;99.90;;;;;;4880280;29;20059;-87
2022/12/28 01:16:33;;;;;;;;;;;-1.00;99.90;;;;;;4880546;29;20051;-90
2022/12/28 01:19:06;;;;;;;4.30;4.00;;;-0.90;99.90;;;;;;4895945;29;19945;-87
2022/12/28 01:21:36;;;;;;;47.75;7.40;;;-1.00;99.90;;;;;;4878728;29;20051;-87
2022/12/28 01:24:06;;;;;;;46.22;7.50;;;-1.00;99.90;;;;;;4894474;29;20432;-88
2022/12/28 01:26:34;;;;;;;4.05;3.72;;;-1.20;99.90;;;;;;4911699;29;20060;-88
2022/12/28 01:29:02;;;;;;;32.25;4.90;;;-1.30;99.90;;;;;;4890278;29;20093;-90
2022/12/28 01:31:32;;;;;;;4.63;4.00;;;-1.50;99.90;;;;;;4893246;29;20689;-88
2022/12/28 01:34:00;;;;;;;9.98;4.97;;;-1.60;99.90;;;;;;4894707;29;20686;-94
2022/12/28 01:36:30;;;;;;;6.38;4.50;;;-1.70;99.90;;;;;;4910093;29;20041;-87
2022/12/28 01:39:00;;;;;;;44.22;7.00;;;-1.80;99.90;;;;;;4903052;29;20679;-87
2022/12/28 01:41:31;;;;;;;10.40;3.92;;;-1.70;99.90;;;;;;4901261;29;20053;-92
2022/12/28 01:43:59;;;;;;;9.75;4.00;;;-1.70;99.90;;;;;;4893312;29;20048;-91
2022/12/28 01:46:36;;;;;;;18.13;4.35;;;-1.80;99.90;;;;;;4891185;29;20045;-87
2022/12/28 01:49:05;;;;;;;12.55;4.90;;;-1.90;99.90;;;;;;4875496;29;20045;-91
2022/12/28 01:51:54;;;;;;;18.65;4.10;;;-1.80;99.90;;;;;;4879214;29;20275;-90
2022/12/28 01:54:25;;;;;;;4.55;4.15;;;-1.80;99.90;;;;;;4878342;29;20052;-88
2022/12/28 01:56:52;;;;;;;13.82;5.95;;;-1.80;99.90;;;;;;4894067;29;20397;-90
2022/12/28 01:59:24;;;;;;;7.10;4.78;;;-1.80;99.90;;;;;;4893816;29;20056;-89
2022/12/28 02:01:52;;;;;;;10.05;3.67;;;-1.80;99.90;;;;;;4895166;29;20426;-87
2022/12/28 02:04:20;;;;;;;3.20;2.90;;;-1.80;99.90;;;;;;4909429;29;20036;-88
2022/12/28 02:06:51;;;;;;;5.97;3.40;;;-1.70;99.90;;;;;;4893373;29;20064;-86
2022/12/28 02:09:25;;;;;;;4.72;4.32;;;-1.50;99.90;;;;;;4870742;29;20048;-88
2022/12/28 02:11:54;;;;;;;5.53;4.95;;;-1.30;99.90;;;;;;4892075;29;20063;-89
2022/12/28 02:14:21;;;;;;;4.82;4.43;;;-1.30;99.90;;;;;;4894426;29;20060;-90
2022/12/28 02:16:54;;;;;;;6.32;4.95;;;-1.40;99.90;;;;;;4891716;29;20060;-88
2022/12/28 02:19:44;;;;;;;6.07;5.53;;;-1.40;99.90;;;;;;4879772;29;20045;-87
2022/12/28 02:22:55;;;;;;;7.50;5.43;;;-1.30;99.90;;;;;;4892380;29;20590;-86
2022/12/28 02:25:42;;;;;;;6.13;5.25;;;-1.30;99.90;;;;;;4853459;29;20062;-88
2022/12/28 02:29:07;;;;;;;7.00;4.55;;;-1.30;99.90;;;;;;4867711;29;20048;-87
2022/12/28 02:31:55;;;;;;;4.45;4.05;;;-1.60;99.90;;;;;;4837461;29;20069;-86
2022/12/28 02:34:25;;;;;;;5.38;4.95;;;-1.60;99.90;;;;;;4852554;29;20060;-86
2022/12/28 02:37:00;;;;;;;4.90;3.78;;;-1.50;99.90;;;;;;4865219;29;20053;-86
2022/12/28 02:39:50;;;;;;;6.88;6.07;;;-1.70;99.90;;;;;;4887567;29;20051;-86
2022/12/28 02:42:20;;;;;;;6.32;5.10;;;-1.70;99.90;;;;;;4902392;29;20068;-86
2022/12/28 02:50:38;;;;;;;4.55;4.18;;;-1.70;99.90;;;;;;4890363;29;20052;-85
2022/12/28 02:53:28;;;;;;;4.13;3.83;;;-1.80;99.90;;;;;;4867367;29;20067;-86
2022/12/28 02:56:17;;;;;;;4.75;4.45;;;-1.60;99.90;;;;;;4892695;29;20071;-86
2022/12/28 02:59:19;;;;;;;6.15;5.75;;;-1.40;99.90;;;;;;4892312;29;20073;-88
2022/12/28 03:02:19;;;;;;;4.82;3.72;;;-1.30;99.90;;;;;;4909008;29;20053;-85
2022/12/28 03:04:59;;;;;;;6.45;4.88;;;-1.30;99.90;;;;;;4906103;29;20056;-85
2022/12/28 03:10:49;;;;;;;3.40;3.10;;;-0.90;99.90;;;;;;4893042;29;20691;-86
2022/12/28 03:13:42;;;;;;;4.97;4.53;;;-0.90;99.90;;;;;;4869456;29;20049;-87
2022/12/28 03:25:41;;;;;;;6.13;5.10;;;-0.90;99.90;;;;;;4875015;29;20051;-86
2022/12/28 03:31:05;;;;;;;4.25;3.83;;;-0.50;99.90;;;;;;4856448;29;20076;-86
2022/12/28 03:34:05;;;;;;;4.10;3.67;;;-0.50;99.90;;;;;;4869534;29;20042;-86
2022/12/28 03:37:03;;;;;;;1.95;1.85;;;-0.60;99.90;;;;;;4875762;29;20045;-86
2022/12/28 03:40:08;;;;;;;4.13;3.75;;;-0.70;99.90;;;;;;4887436;29;20063;-86
2022/12/28 03:45:50;;;;;;;3.63;3.35;;;-0.40;99.90;;;;;;4888972;29;20577;-86
2022/12/28 03:48:21;;;;;;;2.50;2.40;;;-0.40;99.90;;;;;;4839073;29;20037;-86
2022/12/28 03:50:52;;;;;;;3.15;2.95;;;-0.40;99.90;;;;;;4869346;29;20053;-86
2022/12/28 03:53:26;;;;;;;4.50;4.20;;;-0.50;99.90;;;;;;4870588;29;20402;-86
2022/12/28 03:56:27;;;;;;;3.35;2.70;;;-0.50;99.90;;;;;;4868763;29;20426;-86
2022/12/28 03:58:58;;;;;;;2.95;2.70;;;-0.40;99.90;;;;;;4856737;29;20603;-85
2022/12/28 04:01:34;;;;;;;2.85;2.63;;;-0.40;99.90;;;;;;4887085;29;20052;-86
2022/12/28 04:04:02;;;;;;;5.80;2.75;;;-0.40;99.90;;;;;;4897060;29;20052;-86
2022/12/28 04:06:30;;;;;;;8.23;3.08;;;-0.30;99.90;;;;;;4880106;29;20060;-85
2022/12/28 04:08:57;;;;;;;2.95;2.75;;;-0.30;99.90;;;;;;4859757;29;20067;-85
2022/12/28 04:11:28;;;;;;;3.38;2.75;;;-0.40;99.90;;;;;;4866509;29;20064;-86
2022/12/28 04:13:57;;;;;;;2.92;2.72;;;-0.40;99.90;;;;;;4909098;29;20049;-86
2022/12/28 04:16:27;;;;;;;2.60;2.47;;;-0.40;99.90;;;;;;4909801;29;20048;-87
2022/12/28 04:18:56;;;;;;;2.88;2.65;;;-0.40;99.90;;;;;;4888954;29;20056;-86
2022/12/28 04:21:24;;;;;;;3.95;3.55;;;-0.50;99.90;;;;;;4909139;29;20420;-86
2022/12/28 04:23:53;;;;;;;2.80;2.60;;;-0.50;99.90;;;;;;4893122;29;20065;-85
2022/12/28 04:26:22;;;;;;;2.92;2.60;;;-0.60;99.90;;;;;;4894692;29;20056;-86
2022/12/28 04:28:52;;;;;;;5.65;3.65;;;-0.70;99.90;;;;;;4896364;29;20040;-86
2022/12/28 04:31:32;;;;;;;3.60;3.30;;;-0.70;99.90;;;;;;4895328;29;20123;-87
2022/12/28 04:34:06;;;;;;;3.90;3.67;;;-0.80;99.90;;;;;;4894693;29;20045;-87
2022/12/28 04:36:38;;;;;;;3.50;3.20;;;-0.80;99.90;;;;;;4894426;29;20052;-87
2022/12/28 04:39:11;;;;;;;3.88;3.50;;;-0.80;99.90;;;;;;4875754;29;20057;-86
2022/12/28 04:41:39;;;;;;;3.55;2.60;;;-0.80;99.90;;;;;;4891018;29;20045;-86
2022/12/28 04:44:06;;;;;;;2.63;2.42;;;-0.70;99.90;;;;;;4891436;29;20444;-86
2022/12/28 04:46:34;;;;;;;2.40;2.20;;;-0.70;99.90;;;;;;4895003;29;20065;-86
2022/12/28 04:49:02;;;;;;;3.58;2.40;;;-0.70;99.90;;;;;;4921761;29;20519;-86
2022/12/28 04:51:31;;;;;;;3.72;3.08;;;-0.70;99.90;;;;;;4913569;29;20079;-87
2022/12/28 04:53:58;;;;;;;2.75;2.58;;;-0.60;99.90;;;;;;4906958;29;20535;-87
2022/12/28 04:56:27;;;;;;;4.07;3.80;;;-0.60;99.90;;;;;;4893651;29;20071;-86
2022/12/28 04:58:56;;;;;;;3.35;3.15;;;-0.60;99.90;;;;;;4894722;29;20056;-87
2022/12/28 05:01:26;;;;;;;2.50;2.40;;;-0.60;99.90;;;;;;4893102;29;20060;-86
2022/12/28 05:03:54;;;;;;;2.92;2.72;;;-0.60;99.90;;;;;;4893380;29;20067;-87
2022/12/28 05:06:27;;;;;;;3.10;2.90;;;-0.50;99.90;;;;;;4893136;29;20060;-87
2022/12/28 05:08:56;;;;;;;6.35;2.58;;;-0.40;99.90;;;;;;4863726;29;20060;-87
2022/12/28 05:11:26;;;;;;;2.65;2.55;;;-0.40;99.90;;;;;;4865508;29;20100;-86
2022/12/28 05:13:55;;;;;;;2.22;2.13;;;-0.40;99.90;;;;;;4860407;29;20049;-87
2022/12/28 05:16:25;;;;;;;3.42;2.25;;;-0.40;99.90;;;;;;4880792;29;20045;-86
2022/12/28 05:18:55;;;;;;;2.58;2.45;;;-0.40;99.90;;;;;;4891910;29;20065;-87
2022/12/28 05:21:27;;;;;;;2.60;2.40;;;-0.60;99.90;;;;;;4875448;29;20044;-87
2022/12/28 05:23:56;;;;;;;2.53;2.35;;;-0.60;99.90;;;;;;4865762;29;20176;-87
2022/12/28 05:26:27;;;;;;;2.72;2.53;;;-0.60;99.90;;;;;;4892855;29;20496;-86
2022/12/28 05:28:57;;;;;;;2.72;2.40;;;-0.50;99.90;;;;;;4885032;29;20440;-86
2022/12/28 05:31:27;;;;;;;2.38;2.20;;;-0.40;99.90;;;;;;4877873;29;20049;-86
2022/12/28 05:33:55;;;;;;;2.50;2.08;;;-0.30;99.90;;;;;;4876369;29;20432;-85
2022/12/28 05:36:26;;;;;;;1.55;1.50;;;-0.30;99.90;;;;;;4859958;29;20151;-86
2022/12/28 05:38:55;;;;;;;1.98;1.88;;;-0.40;99.90;;;;;;4883480;29;20056;-87
2022/12/28 05:41:26;;;;;;;3.33;2.55;;;-0.30;99.90;;;;;;4891930;29;20417;-85
2022/12/28 05:43:55;;;;;;;1.97;1.87;;;-0.20;99.90;;;;;;4890319;29;20095;-85
2022/12/28 05:46:27;;;;;;;2.33;1.70;;;-0.20;99.90;;;;;;4880894;29;20045;-86
2022/12/28 05:48:58;;;;;;;2.00;1.90;;;-0.10;99.90;;;;;;4889742;29;20553;-86
2022/12/28 05:51:28;;;;;;;2.78;1.90;;;0.00;99.90;;;;;;4890383;29;20067;-86
2022/12/28 05:53:58;;;;;;;3.08;2.83;;;0.00;99.90;;;;;;4891519;29;20421;-86
2022/12/28 05:56:28;;;;;;;2.47;2.28;;;0.00;99.90;;;;;;4894356;29;20041;-86
2022/12/28 05:58:58;;;;;;;3.22;2.92;;;0.00;99.90;;;;;;4893373;29;20409;-86
2022/12/28 06:01:29;;;;;;;1.90;1.80;;;0.10;99.90;;;;;;4877006;29;20052;-86
2022/12/28 06:03:59;;;;;;;3.20;3.00;;;0.00;99.90;;;;;;4861676;29;20051;-87
2022/12/28 06:06:28;;;;;;;2.33;2.13;;;0.00;99.90;;;;;;4894424;29;20169;-86
2022/12/28 06:08:55;;;;;;;4.45;2.10;;;0.00;99.90;;;;;;4876255;29;20060;-86
2022/12/28 06:11:26;;;;;;;2.35;2.13;;;0.00;99.90;;;;;;4892919;29;20067;-86
2022/12/28 06:13:54;;;;;;;2.58;2.13;;;0.00;99.90;;;;;;4907433;29;20524;-86
2022/12/28 06:16:25;;;;;;;2.60;2.40;;;0.10;99.90;;;;;;4893122;29;20048;-86
2022/12/28 06:18:53;;;;;;;4.03;2.03;;;0.10;99.90;;;;;;4892657;29;20147;-86
2022/12/28 06:21:27;;;;;;;2.65;1.88;;;0.10;99.90;;;;;;4907290;29;20425;-87
2022/12/28 06:23:57;;;;;;;2.00;1.90;;;0.10;99.90;;;;;;4897590;29;20060;-86
2022/12/28 06:26:29;;;;;;;2.65;2.45;;;0.10;99.90;;;;;;4891562;29;20067;-85
2022/12/28 06:28:57;;;;;;;2.15;1.88;;;0.10;99.90;;;;;;4889213;29;20129;-86
2022/12/28 06:31:34;;;;;;;2.00;1.90;;;0.20;99.90;;;;;;4891464;29;20053;-86
2022/12/28 06:34:05;;;;;;;2.95;2.75;;;0.20;99.90;;;;;;4875109;29;20045;-87
2022/12/28 06:36:45;;;;;;;2.47;2.28;;;0.20;99.90;;;;;;4875119;29;20047;-86
2022/12/28 06:39:15;;;;;;;3.28;3.08;;;0.20;99.90;;;;;;4845292;29;20068;-86
2022/12/28 06:41:45;;;;;;;3.58;3.28;;;0.20;99.90;;;;;;4894084;29;20040;-86
2022/12/28 06:44:13;;;;;;;2.78;2.03;;;0.20;99.90;;;;;;4892254;29;20764;-86
2022/12/28 06:46:41;;;;;;;2.65;2.45;;;0.20;99.90;;;;;;4877696;29;20052;-85
2022/12/28 06:49:09;;;;;;;2.63;2.42;;;0.30;99.90;;;;;;4861947;29;20048;-86
2022/12/28 06:51:39;;;;;;;3.15;2.92;;;0.20;99.90;;;;;;4886500;29;20424;-87
2022/12/28 06:54:08;;;;;;;2.00;1.90;;;0.20;99.90;;;;;;4891059;29;20053;-85
2022/12/28 06:56:37;;;;;;;2.05;1.95;;;0.20;99.90;;;;;;4907389;29;20393;-86
2022/12/28 06:59:06;;;;;;;3.42;2.70;;;0.30;99.90;;;;;;4874825;29;20614;-86
2022/12/28 07:01:40;;;;;;;2.05;1.95;;;0.30;99.90;;;;;;4858081;29;20545;-86
2022/12/28 07:04:08;;;;;;;1.88;1.77;;;0.30;99.90;;;;;;4886761;29;20422;-86
2022/12/28 07:06:42;;;;;;;1.85;1.75;;;0.30;99.90;;;;;;4872936;29;20053;-86
2022/12/28 07:09:13;;;;;;;2.55;2.33;;;0.30;99.90;;;;;;4890987;29;20048;-86
2022/12/28 07:11:43;;;;;;;1.80;1.70;;;0.30;99.90;;;;;;4907129;29;20497;-85
2022/12/28 07:14:10;;;;;;;2.55;2.08;;;0.30;99.90;;;;;;4890970;29;20052;-85
2022/12/28 07:16:39;;;;;;;2.65;2.20;;;0.30;99.90;;;;;;4893318;29;20453;-86
2022/12/28 07:19:06;;;;;;;4.10;3.03;;;0.40;99.90;;;;;;4892304;29;20040;-85
2022/12/28 07:21:36;;;;;;;2.28;2.08;;;0.40;99.90;;;;;;4893038;29;20468;-85
2022/12/28 07:24:05;;;;;;;2.50;2.30;;;0.40;99.90;;;;;;4896537;29;20059;-86
2022/12/28 07:26:35;;;;;;;3.03;2.60;;;0.40;99.90;;;;;;4911298;29;20056;-86
2022/12/28 07:29:05;;;;;;;3.13;2.53;;;0.50;99.90;;;;;;4894940;29;20053;-86
2022/12/28 07:31:38;;;;;;;2.45;2.25;;;0.50;99.90;;;;;;4891931;29;20053;-85
2022/12/28 07:34:15;;;;;;;2.22;2.03;;;0.50;99.90;;;;;;4894468;29;20052;-86
2022/12/28 07:36:43;;;;;;;2.97;2.78;;;0.50;99.90;;;;;;4892161;29;20667;-86
2022/12/28 07:39:11;;;;;;;2.50;2.30;;;0.50;99.90;;;;;;4907352;29;20059;-87
2022/12/28 07:41:41;;;;;;;2.17;2.05;;;0.60;99.90;;;;;;4913868;29;20141;-86
2022/12/28 07:44:09;;;;;;;2.15;2.03;;;0.60;99.90;;;;;;4874584;29;20056;-86
2022/12/28 07:46:37;;;;;;;5.07;2.33;;;0.60;99.90;;;;;;4893060;29;20754;-86
2022/12/28 07:49:05;;;;;;;2.58;1.95;;;0.70;99.90;;;;;;4862723;29;20056;-87
2022/12/28 07:51:35;;;;;;;2.50;2.28;;;0.70;99.90;;;;;;4872684;29;20440;-87
2022/12/28 07:54:04;;;;;;;3.80;3.60;;;0.70;99.90;;;;;;4892221;29;20052;-86
2022/12/28 07:56:33;;;;;;;1.67;1.58;;;0.80;99.90;;;;;;4891113;29;20067;-87
2022/12/28 07:59:02;;;;;;;2.72;2.53;;;0.80;99.90;;;;;;4894657;29;20056;-87
2022/12/28 08:01:31;;;;;;;2.40;1.87;;;0.80;99.90;;;;;;4873202;29;20049;-86
2022/12/28 08:04:02;;;;;;;2.65;2.35;;;0.80;99.90;;;;;;4893699;29;20063;-87
2022/12/28 08:06:33;;;;;;;2.67;2.47;;;0.80;99.90;;;;;;4860612;29;20056;-87
2022/12/28 08:09:04;;;;;;;2.85;2.65;;;0.80;99.90;;;;;;4861455;29;20722;-86
2022/12/28 08:11:35;;;;;;;2.67;2.47;;;0.80;99.90;;;;;;4867253;29;20045;-87
2022/12/28 08:14:07;;;;;;;5.35;4.85;;;0.80;99.90;;;;;;4855938;29;20669;-87
2022/12/28 08:16:41;;;;;;;2.25;1.80;;;0.90;99.90;;;;;;4856176;29;20052;-87
2022/12/28 08:19:09;;;;;;;2.03;1.92;;;0.90;99.90;;;;;;4844334;29;20560;-86
2022/12/28 08:21:41;;;;;;;2.85;2.15;;;0.90;99.90;;;;;;4844576;29;20048;-86
2022/12/28 08:24:13;;;;;;;;;;;0.90;99.90;;;;;;4874498;29;20048;-87
2022/12/28 08:26:43;;;;;;;1.83;1.73;;;0.90;99.90;;;;;;4848351;29;19931;-87
2022/12/28 08:29:14;;;;;;;1.85;1.75;;;1.00;99.90;;;;;;4849388;29;20041;-86
2022/12/28 08:31:43;;;;;;;2.10;1.90;;;1.00;99.90;;;;;;4837184;29;20053;-86
2022/12/28 08:34:17;;;;;;;2.60;2.42;;;1.10;99.90;;;;;;4858711;29;20045;-87
2022/12/28 08:36:54;;;;;;;4.40;1.83;;;1.10;99.90;;;;;;4856515;29;20041;-86
2022/12/28 08:39:22;;;;;;;7.65;2.60;;;1.10;99.90;;;;;;4862186;29;20157;-87
2022/12/28 08:41:49;;;;;;;2.50;2.30;;;1.20;99.90;;;;;;4880415;29;20136;-86
2022/12/28 08:44:17;;;;;;;1.90;1.80;;;1.30;99.90;;;;;;4875915;29;20045;-87
2022/12/28 08:46:47;;;;;;;2.95;2.75;;;1.20;99.90;;;;;;4887366;29;20079;-87
2022/12/28 08:49:15;;;;;;;2.43;2.23;;;1.20;99.90;;;;;;4877825;29;20060;-87
2022/12/28 08:51:43;;;;;;;3.08;2.83;;;1.40;99.90;;;;;;4875886;29;20057;-86
2022/12/28 08:54:12;;;;;;;2.88;2.58;;;1.50;99.90;;;;;;4866933;29;20041;-87
2022/12/28 08:56:42;;;;;;;2.63;2.42;;;1.60;99.90;;;;;;4884119;29;20040;-88
2022/12/28 08:59:16;;;;;;;2.15;2.05;;;1.50;99.90;;;;;;4893870;29;20049;-87
2022/12/28 09:01:45;;;;;;;2.78;2.05;;;1.50;99.90;;;;;;4894565;29;20044;-87
2022/12/28 09:04:22;;;;;;;2.70;2.50;;;1.50;99.90;;;;;;4879061;29;20404;-87
2022/12/28 09:06:50;;;;;;;4.15;2.63;;;1.50;99.90;;;;;;4910823;29;20044;-87
2022/12/28 09:09:19;;;;;;;2.47;2.38;;;1.60;99.90;;;;;;4896237;29;20040;-88
2022/12/28 09:11:47;;;;;;;2.25;2.15;;;1.70;99.90;;;;;;4899423;29;20060;-88
2022/12/28 09:14:17;;;;;;;2.75;2.38;;;1.80;99.90;;;;;;4904953;29;20045;-87
2022/12/28 09:16:52;;;;;;;2.58;2.38;;;1.90;99.90;;;;;;4913130;29;20258;-87
2022/12/28 09:19:21;;;;;;;2.35;2.17;;;1.90;99.90;;;;;;4897625;29;20047;-86
2022/12/28 09:21:51;;;;;;;2.30;2.15;;;2.00;99.90;;;;;;4889344;29;20044;-87
2022/12/28 09:24:23;;;;;;;3.97;2.83;;;2.10;99.90;;;;;;4903401;29;20041;-88
2022/12/28 09:26:53;;;;;;;2.85;2.50;;;2.20;99.90;;;;;;4893703;29;20053;-86
2022/12/28 09:29:21;;;;;;;4.43;3.75;;;2.20;99.90;;;;;;4892862;29;20049;-86
2022/12/28 09:31:49;;;;;;;3.42;2.53;;;2.40;99.90;;;;;;4911263;29;20456;-87
2022/12/28 09:34:17;;;;;;;4.88;3.83;;;2.30;99.90;;;;;;4908187;29;20456;-87
2022/12/28 09:37:07;;;;;;;4.20;3.30;;;2.50;99.90;;;;;;4894572;29;20428;-86
2022/12/28 09:39:35;;;;;;;2.42;2.28;;;2.60;99.90;;;;;;4909747;29;20053;-88
2022/12/28 09:42:13;;;;;;;3.90;3.60;;;2.70;99.90;;;;;;4892640;29;20536;-87
2022/12/28 09:45:00;;;;;;;2.65;2.47;;;2.80;99.90;;;;;;4899290;29;20439;-87
2022/12/28 09:47:50;;;;;;;4.38;3.95;;;2.90;99.90;;;;;;4911273;29;20432;-88
2022/12/28 09:50:20;;;;;;;3.03;2.80;;;3.10;99.90;;;;;;4896128;29;20048;-87
2022/12/28 09:53:25;;;;;;;6.15;3.50;;;3.30;99.90;;;;;;4892629;29;20045;-87
2022/12/28 09:56:05;;;;;;;3.47;3.17;;;4.30;99.90;;;;;;4875445;29;20416;-86
2022/12/28 09:58:38;;;;;;;3.78;3.10;;;4.70;99.90;;;;;;4904403;29;20056;-87
2022/12/28 10:01:15;;;;;;;3.55;3.13;;;4.50;99.90;;;;;;4905331;29;20045;-87
2022/12/28 10:03:44;;;;;;;4.85;2.78;;;4.20;99.90;;;;;;4903747;29;20056;-89
2022/12/28 10:06:16;;;;;;;3.40;2.60;;;4.10;99.90;;;;;;4909622;29;20060;-90
2022/12/28 10:08:47;;;;;;;2.97;2.78;;;4.10;99.90;;;;;;4892247;29;20415;-89
2022/12/28 10:11:24;;;;;;;4.15;3.63;;;3.90;99.90;;;;;;4877204;29;20044;-87
2022/12/28 10:14:02;;;;;;;3.10;2.80;;;4.00;99.90;;;;;;4876598;29;20745;-89
2022/12/28 10:16:31;;;;;;;4.80;4.18;;;4.00;99.90;;;;;;4893397;29;20060;-89
2022/12/28 10:18:59;;;;;;;3.83;2.70;;;4.10;99.90;;;;;;4893534;29;20397;-88
2022/12/28 10:21:32;;;;;;;2.75;2.45;;;4.10;99.90;;;;;;4880429;29;20045;-92
2022/12/28 10:24:04;;;;;;;2.83;2.60;;;4.00;99.90;;;;;;4892830;29;20050;-87
2022/12/28 10:26:54;;;;;;;2.13;2.03;;;4.00;99.90;;;;;;4867554;29;20048;-89
2022/12/28 10:29:23;;;;;;;3.17;2.88;;;4.10;99.90;;;;;;4893115;29;20556;-89
2022/12/28 10:32:00;;;;;;;4.15;3.28;;;4.20;99.90;;;;;;4893278;29;20052;-88
2022/12/28 10:34:31;;;;;;;3.72;3.10;;;4.20;99.90;;;;;;4848410;29;20082;-87
2022/12/28 10:37:13;;;;;;;3.63;3.35;;;4.30;99.90;;;;;;4855805;29;20052;-87
2022/12/28 10:40:00;;;;;;;2.83;2.58;;;4.30;99.90;;;;;;4882111;29;20471;-88
2022/12/28 10:42:45;;;;;;;2.35;2.25;;;4.30;99.90;;;;;;4829563;29;20050;-88
2022/12/28 10:45:24;;;;;;;3.20;2.90;;;4.40;99.90;;;;;;4820471;29;20061;-88
2022/12/28 10:47:55;;;;;;;5.40;3.53;;;4.40;99.90;;;;;;4835778;29;20061;-88
2022/12/28 10:50:55;;;;;;;;;;;4.40;99.90;;;;;;4835409;29;20572;-89
2022/12/28 10:53:30;;;;;;;3.78;3.45;;;4.40;99.90;;;;;;4794359;29;19928;-88
2022/12/28 10:56:09;;;;;;;3.35;3.05;;;4.40;99.90;;;;;;4820502;29;20054;-89
2022/12/28 10:58:44;;;;;;;4.28;3.88;;;4.50;99.90;;;;;;4836468;29;20050;-89
2022/12/28 11:01:12;;;;;;;3.88;3.58;;;4.50;99.90;;;;;;4834544;29;20053;-88
2022/12/28 11:04:06;;;;;;;4.10;3.70;;;4.50;99.90;;;;;;4806107;29;20538;-89
2022/12/28 11:06:49;;;;;;;5.28;4.10;;;4.50;99.90;;;;;;4814768;29;20050;-89
2022/12/28 11:09:21;;;;;;;4.90;3.30;;;4.60;99.90;;;;;;4819116;29;20057;-90
2022/12/28 11:11:51;;;;;;;4.20;3.80;;;4.60;99.90;;;;;;4838626;29;20053;-89
2022/12/28 11:14:23;;;;;;;5.50;3.72;;;4.60;99.90;;;;;;4887486;29;20056;-90
2022/12/28 11:16:52;;;;;;;5.73;3.07;;;4.60;99.90;;;;;;4894701;29;20064;-90
2022/12/28 11:19:21;;;;;;;2.90;2.70;;;4.60;99.90;;;;;;4894003;29;20057;-90
2022/12/28 11:21:50;;;;;;;3.35;2.65;;;4.50;99.90;;;;;;4893636;29;20591;-91
2022/12/28 11:24:25;;;;;;;3.80;3.50;;;4.50;99.90;;;;;;4893456;29;20051;-90
2022/12/28 11:26:53;;;;;;;3.95;3.63;;;4.50;99.90;;;;;;4862955;29;20056;-91
2022/12/28 11:29:21;;;;;;;2.67;2.40;;;4.40;99.90;;;;;;4862763;29;20049;-91
2022/12/28 11:32:01;;;;;;;2.88;2.58;;;4.50;99.90;;;;;;4893966;29;20049;-93
2022/12/28 11:34:30;;;;;;;3.87;3.40;;;4.60;99.90;;;;;;4855795;29;20406;-90
2022/12/28 11:36:58;;;;;;;4.55;4.15;;;4.80;99.90;;;;;;4889097;29;20543;-89
2022/12/28 11:39:26;;;;;;;5.00;2.85;;;5.00;99.90;;;;;;4892022;29;20064;-89
2022/12/28 11:41:56;;;;;;;3.08;2.85;;;5.20;99.90;;;;;;4890923;29;20418;-88
2022/12/28 11:44:49;;;;;;;3.28;2.97;;;5.20;99.90;;;;;;4876670;29;20402;-89
2022/12/28 11:47:32;;;;;;;4.07;3.05;;;5.30;99.90;;;;;;4894134;29;20056;-90
2022/12/28 11:50:37;;;;;;;5.80;3.40;;;5.40;99.90;;;;;;4899175;29;20743;-91
2022/12/28 11:53:32;;;;;;;10.63;3.88;;;5.50;99.90;;;;;;4881043;29;20048;-90
2022/12/28 11:56:05;;;;;;;3.30;2.97;;;5.50;99.90;;;;;;4876793;29;20059;-90
2022/12/28 11:58:46;;;;;;;4.03;3.00;;;5.60;99.90;;;;;;4878682;29;20059;-89
2022/12/28 12:01:27;;;;;;;;;;;5.70;99.90;;;;;;4877311;29;20429;-89
2022/12/28 12:03:55;;;;;;;3.27;2.93;;;5.80;99.90;;;;;;4890585;29;19934;-86
2022/12/28 12:06:44;;;;;;;2.92;2.63;;;5.70;99.90;;;;;;4891466;29;20297;-89
2022/12/28 12:09:24;;;;;;;1.90;1.80;;;5.70;99.90;;;;;;4889257;29;20048;-88
2022/12/28 12:11:53;;;;;;;3.35;3.10;;;5.70;99.90;;;;;;4892800;29;20053;-89
2022/12/28 12:14:31;;;;;;;2.67;2.47;;;5.80;99.90;;;;;;4893361;29;20053;-89
2022/12/28 12:17:12;;;;;;;3.58;3.28;;;5.80;99.90;;;;;;4876990;29;20056;-90
2022/12/28 12:19:47;;;;;;;11.40;3.60;;;5.70;99.90;;;;;;4893749;29;20056;-89
2022/12/28 12:22:32;;;;;;;2.83;2.60;;;5.70;99.90;;;;;;4882187;29;20056;-90
2022/12/28 12:25:08;;;;;;;;;;;5.70;99.90;;;;;;4891903;29;20041;-91
2022/12/28 12:27:42;;;;;;;2.05;1.85;;;5.70;99.90;;;;;;4908294;29;19947;-90
2022/12/28 12:30:20;;;;;;;5.13;3.65;;;5.70;99.90;;;;;;4895908;29;20048;-89
2022/12/28 12:33:12;;;;;;;2.60;2.40;;;5.80;99.90;;;;;;4876507;29;20055;-90
2022/12/28 12:36:18;;;;;;;4.50;3.55;;;5.90;99.90;;;;;;4892033;29;20064;-90
2022/12/28 12:39:07;;;;;;;4.43;3.47;;;6.10;99.90;;;;;;4889915;29;20052;-90
2022/12/28 12:41:48;;;;;;;2.47;2.28;;;6.20;99.90;;;;;;4912658;29;20043;-89
2022/12/28 12:44:47;;;;;;;3.58;3.25;;;6.30;99.90;;;;;;4912670;29;20055;-91
2022/12/28 12:47:29;;;;;;;3.38;3.08;;;6.50;99.90;;;;;;4915400;29;20048;-89
2022/12/28 12:50:17;;;;;;;2.85;2.38;;;6.60;99.90;;;;;;4898358;29;20040;-90
2022/12/28 12:53:13;;;;;;;3.35;2.08;;;6.80;99.90;;;;;;4875884;29;20045;-90
2022/12/28 12:55:52;;;;;;;2.70;2.13;;;6.90;99.90;;;;;;4875233;29;20052;-91
2022/12/28 12:58:26;;;;;;;4.53;2.15;;;7.00;99.90;;;;;;4893502;29;20059;-91
2022/12/28 13:01:18;;;;;;;2.20;2.00;;;7.00;99.90;;;;;;4907597;29;20060;-91
2022/12/28 13:03:52;;;;;;;2.85;2.63;;;7.10;99.90;;;;;;4878664;29;20064;-90
2022/12/28 13:06:29;;;;;;;2.38;2.08;;;7.10;99.90;;;;;;4891758;29;20051;-89
2022/12/28 13:08:59;;;;;;;2.13;1.92;;;;;;;;;;4893546;29;20503;-90
2022/12/28 13:11:35;;;;;;;2.80;2.55;;;;;;;;;;4899368;29;20056;-91
2022/12/28 13:14:04;;;;;;;2.30;2.13;;;;;;;;;;4896696;29;20069;-89
2022/12/28 13:16:32;;;;;;;3.42;2.30;;;;;;;;;;4913151;29;20052;-89
2022/12/28 13:19:04;;;;;;;1.90;1.70;;;;;;;;;;4914896;29;20052;-91
2022/12/28 13:21:40;;;;;;;2.60;2.20;;;;;;;;;;4897315;29;20055;-90
2022/12/28 13:24:28;;;;;;;1.60;1.50;;;;;;;;;;4896448;29;20060;-90
2022/12/28 13:26:57;;;;;;;2.20;1.90;;;;;;;;;;4921860;29;20052;-90
2022/12/28 13:29:26;;;;;;;1.42;1.17;;;;;;;;;;4913899;29;20047;-90
2022/12/28 13:31:54;;;;;;;1.48;1.40;;;;;;;;;;4897670;29;20063;-90
2022/12/28 13:34:24;;;;;;;1.73;1.27;;;;;;;;;;4912754;29;20255;-90
2022/12/28 13:37:00;;;;;;;3.13;1.90;;;;;;;;;;4912890;29;20043;-90
2022/12/28 13:39:34;;;;;;;1.35;1.25;;;;;;;;;;4917191;29;20052;-90
2022/12/28 13:42:19;;;;;;;2.13;1.92;;;;;;;;;;4901426;29;20047;-91
2022/12/28 13:44:56;;;;;;;2.17;2.00;;;;;;;;;;4916640;29;20043;-90
2022/12/28 13:47:35;;;;;;;2.45;2.25;;;;;;;;;;4916572;29;20047;-92
2022/12/28 13:50:17;;;;;;;4.88;2.70;;;;;;;;;;4908207;29;20055;-91
2022/12/28 13:52:49;;;;;;;5.38;2.40;;;;;;;;;;4880474;29;20044;-90
2022/12/28 13:55:23;;;;;;;1.75;1.52;;;;;;;;;;4882579;29;20052;-91
2022/12/28 13:57:52;;;;;;;2.05;1.75;;;;;;;;;;4897386;29;20060;-93
2022/12/28 14:00:26;;;;;;;3.53;1.85;;;;;;;;;;4914914;29;20103;-90